createdAt,value
2016-07-31T00:00:53.548Z,0
2016-07-31T00:01:53.575Z,0
2016-07-31T00:02:53.599Z,0
2016-07-31T00:03:53.628Z,0
2016-07-31T00:04:53.653Z,0
2016-07-31T00:05:53.680Z,0
2016-07-31T00:06:53.703Z,0
2016-07-31T00:07:53.730Z,0
2016-07-31T00:08:53.759Z,0
2016-07-31T00:09:53.793Z,0
2016-07-31T00:10:53.809Z,0
2016-07-31T00:11:53.831Z,0
2016-07-31T00:13:53.889Z,0
2016-07-31T00:14:53.910Z,0
2016-07-31T00:15:53.943Z,0
2016-07-31T00:16:53.976Z,0
2016-07-31T00:17:53.989Z,0
2016-07-31T00:18:54.018Z,0
2016-07-31T00:20:54.069Z,0
2016-07-31T00:21:54.099Z,0
2016-07-31T00:22:54.123Z,0
2016-07-31T00:23:54.159Z,0
2016-07-31T00:24:54.174Z,0
2016-07-31T00:25:54.205Z,0
2016-07-31T00:26:54.232Z,0
2016-07-31T00:28:54.280Z,0
2016-07-31T00:29:54.305Z,0
2016-07-31T00:30:54.348Z,0
2016-07-31T00:31:54.358Z,0
2016-07-31T00:32:54.389Z,0
2016-07-31T00:33:54.408Z,0
2016-07-31T00:34:54.434Z,0
2016-07-31T00:35:54.469Z,0
2016-07-31T00:36:54.492Z,0
2016-07-31T00:37:54.514Z,0
2016-07-31T00:38:54.538Z,0
2016-07-31T00:39:54.567Z,0
2016-07-31T00:40:54.646Z,0
2016-07-31T00:41:54.621Z,0
2016-07-31T00:43:54.678Z,0
2016-07-31T00:44:54.693Z,0
2016-07-31T00:45:54.726Z,0
2016-07-31T00:46:54.750Z,0
2016-07-31T00:47:54.772Z,0
2016-07-31T00:48:54.801Z,0
2016-07-31T00:49:54.829Z,0
2016-07-31T00:50:54.850Z,0
2016-07-31T00:51:54.881Z,0
2016-07-31T00:52:54.908Z,0
2016-07-31T00:53:54.934Z,0
2016-07-31T00:54:54.952Z,0
2016-07-31T00:55:54.985Z,0
2016-07-31T00:56:55.009Z,0
2016-07-31T00:58:55.059Z,0
2016-07-31T00:59:55.087Z,0
2016-07-31T01:00:55.110Z,0
2016-07-31T01:01:55.143Z,0
2016-07-31T01:02:55.165Z,0
2016-07-31T01:03:55.192Z,0
2016-07-31T01:04:55.218Z,0
2016-07-31T01:05:55.240Z,0
2016-07-31T01:06:55.270Z,0
2016-07-31T01:07:55.299Z,0
2016-07-31T01:08:55.316Z,0
2016-07-31T01:09:55.347Z,0
2016-07-31T01:10:55.373Z,0
2016-07-31T01:11:55.404Z,0
2016-07-31T01:13:55.459Z,0
2016-07-31T01:14:55.473Z,0
2016-07-31T01:15:55.501Z,0
2016-07-31T01:16:55.526Z,0
2016-07-31T01:17:55.564Z,0
2016-07-31T01:18:55.583Z,0
2016-07-31T01:19:55.607Z,0
2016-07-31T01:20:55.632Z,0
2016-07-31T01:21:55.664Z,0
2016-07-31T01:22:55.685Z,0
2016-07-31T01:23:55.710Z,0
2016-07-31T01:24:55.737Z,0
2016-07-31T01:25:55.768Z,0
2016-07-31T01:26:55.788Z,0
2016-07-31T01:28:55.839Z,0
2016-07-31T01:29:55.869Z,0
2016-07-31T01:30:55.892Z,0
2016-07-31T01:31:55.915Z,0
2016-07-31T01:32:55.943Z,0
2016-07-31T01:33:55.970Z,0
2016-07-31T01:34:55.991Z,0
2016-07-31T01:35:56.027Z,0
2016-07-31T01:36:56.048Z,0
2016-07-31T01:37:56.071Z,0
2016-07-31T01:38:56.109Z,0
2016-07-31T01:39:56.125Z,0
2016-07-31T01:40:56.201Z,0
2016-07-31T01:41:56.174Z,0
2016-07-31T01:42:56.208Z,0
2016-07-31T01:43:56.232Z,0
2016-07-31T01:44:56.252Z,0
2016-07-31T01:45:56.295Z,0
2016-07-31T01:46:56.307Z,0
2016-07-31T01:47:56.335Z,0
2016-07-31T01:48:56.367Z,0
2016-07-31T01:49:56.396Z,0
2016-07-31T01:50:56.412Z,0
2016-07-31T01:51:57.132Z,0
2016-07-31T01:52:56.472Z,0
2016-07-31T01:53:56.489Z,0
2016-07-31T01:54:56.514Z,0
2016-07-31T01:55:57.242Z,0
2016-07-31T01:56:56.574Z,0
2016-07-31T01:57:56.597Z,0
2016-07-31T01:58:56.615Z,0
2016-07-31T01:59:56.644Z,0
2016-07-31T02:00:56.671Z,0
2016-07-31T02:01:56.698Z,0
2016-07-31T02:02:56.721Z,0
2016-07-31T02:03:56.748Z,0
2016-07-31T02:04:56.774Z,0
2016-07-31T02:05:56.800Z,0
2016-07-31T02:06:56.823Z,0
2016-07-31T02:07:56.853Z,0
2016-07-31T02:08:56.885Z,0
2016-07-31T02:09:56.905Z,0
2016-07-31T02:10:56.932Z,0
2016-07-31T02:11:57.660Z,0
2016-07-31T02:12:56.979Z,0
2016-07-31T02:13:57.009Z,0
2016-07-31T02:14:57.051Z,0
2016-07-31T02:15:57.057Z,0
2016-07-31T02:16:57.097Z,0
2016-07-31T02:17:57.113Z,0
2016-07-31T02:18:57.137Z,0
2016-07-31T02:19:57.163Z,0
2016-07-31T02:20:57.188Z,0
2016-07-31T02:21:57.216Z,0
2016-07-31T02:22:57.236Z,0
2016-07-31T02:23:57.276Z,0
2016-07-31T02:24:57.292Z,0
2016-07-31T02:25:57.318Z,0
2016-07-31T02:26:57.354Z,0
2016-07-31T02:27:57.369Z,0
2016-07-31T02:28:57.398Z,0
2016-07-31T02:29:57.422Z,0
2016-07-31T02:30:57.447Z,0
2016-07-31T02:31:57.477Z,0
2016-07-31T02:32:57.500Z,0
2016-07-31T02:33:57.527Z,0
2016-07-31T02:34:57.551Z,0
2016-07-31T02:35:57.585Z,0
2016-07-31T02:36:57.610Z,0
2016-07-31T02:37:57.629Z,0
2016-07-31T02:38:57.659Z,0
2016-07-31T02:39:57.692Z,0
2016-07-31T02:40:57.714Z,0
2016-07-31T02:41:57.731Z,0
2016-07-31T02:42:57.764Z,0
2016-07-31T02:43:57.784Z,0
2016-07-31T02:44:57.812Z,0
2016-07-31T02:45:57.835Z,0
2016-07-31T02:46:57.866Z,0
2016-07-31T02:47:57.894Z,0
2016-07-31T02:48:57.915Z,0
2016-07-31T02:49:57.937Z,0
2016-07-31T02:50:57.969Z,0
2016-07-31T02:51:57.995Z,0
2016-07-31T02:52:58.016Z,0
2016-07-31T02:53:58.757Z,0
2016-07-31T02:54:58.080Z,0
2016-07-31T02:55:58.098Z,0
2016-07-31T02:56:58.124Z,0
2016-07-31T02:57:58.150Z,0
2016-07-31T02:58:58.171Z,0
2016-07-31T02:59:58.207Z,0
2016-07-31T03:00:58.235Z,0
2016-07-31T03:01:58.251Z,0
2016-07-31T03:02:58.281Z,0
2016-07-31T03:03:58.307Z,0
2016-07-31T03:04:58.328Z,0
2016-07-31T03:05:58.354Z,0
2016-07-31T03:06:58.382Z,0
2016-07-31T03:07:58.409Z,0
2016-07-31T03:08:58.436Z,0
2016-07-31T03:09:59.161Z,0
2016-07-31T03:10:58.495Z,0
2016-07-31T03:11:58.515Z,0
2016-07-31T03:12:58.536Z,0
2016-07-31T03:13:58.571Z,0
2016-07-31T03:14:58.585Z,0
2016-07-31T03:15:58.617Z,0
2016-07-31T03:16:58.647Z,0
2016-07-31T03:17:58.668Z,0
2016-07-31T03:18:58.697Z,0
2016-07-31T03:19:58.723Z,0
2016-07-31T03:20:58.740Z,0
2016-07-31T03:21:58.777Z,0
2016-07-31T03:22:58.795Z,0
2016-07-31T03:23:59.526Z,0
2016-07-31T03:24:58.851Z,0
2016-07-31T03:25:58.880Z,0
2016-07-31T03:26:59.597Z,0
2016-07-31T03:27:58.925Z,0
2016-07-31T03:28:58.962Z,0
2016-07-31T03:29:58.978Z,0
2016-07-31T03:30:59.003Z,0
2016-07-31T03:31:59.029Z,0
2016-07-31T03:32:59.055Z,0
2016-07-31T03:33:59.080Z,0
2016-07-31T03:34:59.108Z,0
2016-07-31T03:35:59.131Z,4
2016-07-31T03:36:59.168Z,4
2016-07-31T03:37:59.184Z,4
2016-07-31T03:38:59.215Z,0
2016-07-31T03:39:59.234Z,0
2016-07-31T03:40:59.259Z,4
2016-07-31T03:41:59.294Z,4
2016-07-31T03:42:59.311Z,4
2016-07-31T03:43:59.339Z,4
2016-07-31T03:44:59.367Z,4
2016-07-31T03:45:59.393Z,4
2016-07-31T03:46:59.418Z,8
2016-07-31T03:47:59.446Z,8
2016-07-31T03:48:59.469Z,8
2016-07-31T03:49:59.496Z,8
2016-07-31T03:50:59.521Z,8
2016-07-31T03:51:59.550Z,12
2016-07-31T03:52:59.573Z,16
2016-07-31T03:53:59.610Z,16
2016-07-31T03:54:59.622Z,20
2016-07-31T03:55:59.651Z,20
2016-07-31T03:56:59.683Z,24
2016-07-31T03:57:59.703Z,24
2016-07-31T03:58:59.733Z,24
2016-07-31T03:59:59.757Z,28
2016-07-31T04:00:59.777Z,32
2016-07-31T04:01:59.814Z,28
2016-07-31T04:02:59.836Z,36
2016-07-31T04:03:59.863Z,36
2016-07-31T04:04:59.884Z,40
2016-07-31T04:05:59.907Z,44
2016-07-31T04:06:59.936Z,44
2016-07-31T04:07:59.963Z,52
2016-07-31T04:08:59.989Z,60
2016-07-31T04:10:00.019Z,64
2016-07-31T04:11:00.042Z,68
2016-07-31T04:12:00.066Z,72
2016-07-31T04:13:00.093Z,80
2016-07-31T04:14:00.115Z,84
2016-07-31T04:15:00.847Z,88
2016-07-31T04:16:00.170Z,92
2016-07-31T04:17:00.191Z,96
2016-07-31T04:18:00.225Z,104
2016-07-31T04:19:00.247Z,108
2016-07-31T04:20:00.270Z,108
2016-07-31T04:21:00.301Z,124
2016-07-31T04:22:00.327Z,124
2016-07-31T04:23:00.350Z,108
2016-07-31T04:24:00.376Z,100
2016-07-31T04:25:00.400Z,100
2016-07-31T04:26:00.428Z,112
2016-07-31T04:27:01.155Z,128
2016-07-31T04:28:00.477Z,140
2016-07-31T04:29:00.506Z,156
2016-07-31T04:30:00.532Z,172
2016-07-31T04:31:00.558Z,172
2016-07-31T04:32:01.277Z,148
2016-07-31T04:33:00.610Z,128
2016-07-31T04:34:00.640Z,128
2016-07-31T04:35:00.659Z,132
2016-07-31T04:36:00.687Z,136
2016-07-31T04:37:00.712Z,148
2016-07-31T04:38:00.743Z,168
2016-07-31T04:39:00.773Z,172
2016-07-31T04:40:01.493Z,172
2016-07-31T04:41:00.817Z,180
2016-07-31T04:42:00.841Z,188
2016-07-31T04:43:00.864Z,200
2016-07-31T04:44:00.898Z,220
2016-07-31T04:45:00.917Z,208
2016-07-31T04:46:00.946Z,208
2016-07-31T04:47:00.970Z,232
2016-07-31T04:48:01.004Z,236
2016-07-31T04:49:01.018Z,240
2016-07-31T04:50:01.048Z,236
2016-07-31T04:51:01.074Z,224
2016-07-31T04:52:01.105Z,220
2016-07-31T04:53:01.126Z,212
2016-07-31T04:54:01.151Z,208
2016-07-31T04:55:01.190Z,208
2016-07-31T04:56:01.204Z,200
2016-07-31T04:57:01.231Z,192
2016-07-31T04:58:01.268Z,204
2016-07-31T04:59:01.280Z,204
2016-07-31T05:00:02.008Z,208
2016-07-31T05:01:01.335Z,216
2016-07-31T05:02:01.370Z,208
2016-07-31T05:03:01.386Z,192
2016-07-31T05:04:01.414Z,208
2016-07-31T05:05:01.434Z,196
2016-07-31T05:06:01.466Z,192
2016-07-31T05:07:01.495Z,188
2016-07-31T05:08:01.511Z,188
2016-07-31T05:09:01.537Z,192
2016-07-31T05:10:01.566Z,192
2016-07-31T05:11:01.604Z,180
2016-07-31T05:12:02.333Z,180
2016-07-31T05:13:01.642Z,200
2016-07-31T05:15:01.694Z,216
2016-07-31T05:16:01.719Z,212
2016-07-31T05:17:01.744Z,236
2016-07-31T05:18:01.776Z,252
2016-07-31T05:19:01.794Z,292
2016-07-31T05:20:01.824Z,324
2016-07-31T05:21:01.850Z,324
2016-07-31T05:22:01.877Z,320
2016-07-31T05:23:01.902Z,296
2016-07-31T05:24:01.927Z,308
2016-07-31T05:25:01.966Z,328
2016-07-31T05:26:01.979Z,336
2016-07-31T05:27:02.006Z,304
2016-07-31T05:28:02.039Z,292
2016-07-31T05:30:02.088Z,348
2016-07-31T05:31:02.104Z,372
2016-07-31T05:32:02.139Z,396
2016-07-31T05:33:02.170Z,408
2016-07-31T05:34:02.181Z,432
2016-07-31T05:35:02.212Z,456
2016-07-31T05:36:02.240Z,444
2016-07-31T05:37:02.264Z,456
2016-07-31T05:38:02.299Z,456
2016-07-31T05:39:02.318Z,468
2016-07-31T05:40:02.348Z,524
2016-07-31T05:41:02.579Z,588
2016-07-31T05:42:02.401Z,632
2016-07-31T05:43:02.421Z,696
2016-07-31T05:44:02.448Z,688
2016-07-31T05:45:02.472Z,760
2016-07-31T05:46:02.498Z,852
2016-07-31T05:47:02.532Z,852
2016-07-31T05:48:02.549Z,780
2016-07-31T05:49:02.576Z,812
2016-07-31T05:50:02.606Z,968
2016-07-31T05:51:02.624Z,1196
2016-07-31T05:52:03.348Z,1324
2016-07-31T05:53:02.680Z,1348
2016-07-31T05:54:02.706Z,1256
2016-07-31T05:55:02.729Z,1184
2016-07-31T05:56:02.759Z,1156
2016-07-31T05:57:02.793Z,1224
2016-07-31T05:58:02.809Z,1236
2016-07-31T05:59:02.835Z,1048
2016-07-31T06:00:02.867Z,1020
2016-07-31T06:01:02.892Z,996
2016-07-31T06:02:02.916Z,1008
2016-07-31T06:03:02.948Z,1016
2016-07-31T06:04:02.960Z,1164
2016-07-31T06:05:02.991Z,1332
2016-07-31T06:06:03.023Z,1324
2016-07-31T06:07:03.043Z,1268
2016-07-31T06:08:03.071Z,1280
2016-07-31T06:09:03.098Z,1336
2016-07-31T06:10:03.122Z,1408
2016-07-31T06:11:03.147Z,1580
2016-07-31T06:12:03.169Z,1580
2016-07-31T06:13:03.198Z,1488
2016-07-31T06:14:03.227Z,1620
2016-07-31T06:15:03.249Z,1752
2016-07-31T06:16:03.280Z,1868
2016-07-31T06:17:03.305Z,1936
2016-07-31T06:18:03.329Z,1760
2016-07-31T06:19:03.354Z,1664
2016-07-31T06:20:03.380Z,1516
2016-07-31T06:21:03.409Z,1236
2016-07-31T06:22:03.436Z,1140
2016-07-31T06:23:03.462Z,1324
2016-07-31T06:24:03.495Z,1424
2016-07-31T06:25:03.510Z,1632
2016-07-31T06:26:03.546Z,1880
2016-07-31T06:27:03.573Z,2056
2016-07-31T06:28:03.593Z,1932
2016-07-31T06:29:03.620Z,1864
2016-07-31T06:30:03.645Z,1828
2016-07-31T06:31:03.673Z,1640
2016-07-31T06:32:03.699Z,1576
2016-07-31T06:33:04.432Z,1584
2016-07-31T06:34:03.749Z,1640
2016-07-31T06:35:03.774Z,1676
2016-07-31T06:36:03.807Z,1480
2016-07-31T06:37:03.824Z,1188
2016-07-31T06:38:03.854Z,1020
2016-07-31T06:39:03.878Z,1016
2016-07-31T06:40:03.905Z,1108
2016-07-31T06:41:04.001Z,1204
2016-07-31T06:42:03.960Z,1436
2016-07-31T06:43:03.982Z,1608
2016-07-31T06:44:04.723Z,1556
2016-07-31T06:45:04.038Z,1460
2016-07-31T06:46:04.068Z,1592
2016-07-31T06:47:04.092Z,1808
2016-07-31T06:48:04.114Z,2048
2016-07-31T06:49:04.144Z,2092
2016-07-31T06:50:04.169Z,2072
2016-07-31T06:51:04.197Z,2128
2016-07-31T06:52:04.228Z,2220
2016-07-31T06:53:04.250Z,2252
2016-07-31T06:54:04.273Z,2164
2016-07-31T06:55:04.303Z,2024
2016-07-31T06:56:04.331Z,2036
2016-07-31T06:57:04.350Z,2056
2016-07-31T06:58:05.079Z,2152
2016-07-31T06:59:04.406Z,2172
2016-07-31T07:00:05.129Z,2196
2016-07-31T07:01:04.461Z,2284
2016-07-31T07:02:04.486Z,2280
2016-07-31T07:03:04.512Z,2332
2016-07-31T07:04:04.539Z,2516
2016-07-31T07:05:05.266Z,2640
2016-07-31T07:06:04.606Z,2684
2016-07-31T07:07:04.616Z,2672
2016-07-31T07:08:04.645Z,2732
2016-07-31T07:09:04.679Z,2652
2016-07-31T07:10:04.699Z,2740
2016-07-31T07:11:04.726Z,2824
2016-07-31T07:12:04.756Z,3064
2016-07-31T07:13:04.789Z,3364
2016-07-31T07:14:04.806Z,3392
2016-07-31T07:15:04.833Z,3168
2016-07-31T07:16:04.859Z,3272
2016-07-31T07:17:04.886Z,3352
2016-07-31T07:18:04.912Z,3168
2016-07-31T07:19:04.936Z,3072
2016-07-31T07:20:04.971Z,3008
2016-07-31T07:21:04.992Z,2696
2016-07-31T07:22:05.016Z,2392
2016-07-31T07:23:05.049Z,2248
2016-07-31T07:24:05.075Z,2148
2016-07-31T07:25:05.098Z,2192
2016-07-31T07:26:05.127Z,2360
2016-07-31T07:27:05.154Z,2424
2016-07-31T07:28:05.177Z,2340
2016-07-31T07:29:05.205Z,2208
2016-07-31T07:30:05.236Z,2056
2016-07-31T07:31:05.258Z,1928
2016-07-31T07:32:05.290Z,1828
2016-07-31T07:33:05.313Z,1740
2016-07-31T07:34:05.338Z,1644
2016-07-31T07:35:05.369Z,1524
2016-07-31T07:36:05.397Z,1376
2016-07-31T07:37:05.426Z,1196
2016-07-31T07:38:05.449Z,1108
2016-07-31T07:39:05.478Z,1088
2016-07-31T07:40:05.504Z,1072
2016-07-31T07:41:05.739Z,1028
2016-07-31T07:42:05.558Z,1000
2016-07-31T07:43:05.586Z,1040
2016-07-31T07:44:05.616Z,1088
2016-07-31T07:45:05.635Z,1144
2016-07-31T07:46:05.667Z,1196
2016-07-31T07:47:06.391Z,1248
2016-07-31T07:48:05.716Z,1304
2016-07-31T07:49:05.753Z,1300
2016-07-31T07:50:05.775Z,1360
2016-07-31T07:51:05.798Z,1432
2016-07-31T07:52:05.824Z,1544
2016-07-31T07:53:05.855Z,1684
2016-07-31T07:54:05.883Z,1768
2016-07-31T07:55:05.908Z,1764
2016-07-31T07:56:05.938Z,1676
2016-07-31T07:57:05.967Z,1548
2016-07-31T07:58:05.991Z,1444
2016-07-31T07:59:06.017Z,1396
2016-07-31T08:00:06.047Z,1376
2016-07-31T08:01:06.084Z,1360
2016-07-31T08:02:06.100Z,1352
2016-07-31T08:03:06.121Z,1340
2016-07-31T08:04:06.154Z,1348
2016-07-31T08:05:06.182Z,1356
2016-07-31T08:06:06.204Z,1340
2016-07-31T08:07:06.238Z,1296
2016-07-31T08:08:06.263Z,1256
2016-07-31T08:09:06.285Z,1224
2016-07-31T08:10:06.315Z,1212
2016-07-31T08:11:06.342Z,1220
2016-07-31T08:12:06.365Z,1248
2016-07-31T08:13:06.396Z,1308
2016-07-31T08:14:06.423Z,1372
2016-07-31T08:15:06.450Z,1444
2016-07-31T08:16:06.494Z,1564
2016-07-31T08:17:06.507Z,1608
2016-07-31T08:18:06.542Z,1560
2016-07-31T08:19:06.555Z,1516
2016-07-31T08:20:06.590Z,1464
2016-07-31T08:21:06.606Z,1432
2016-07-31T08:22:06.637Z,1448
2016-07-31T08:23:06.665Z,1632
2016-07-31T08:24:06.701Z,2152
2016-07-31T08:25:06.717Z,2840
2016-07-31T08:26:07.451Z,3540
2016-07-31T08:27:06.778Z,4080
2016-07-31T08:28:06.797Z,4252
2016-07-31T08:29:06.824Z,4208
2016-07-31T08:30:06.861Z,3988
2016-07-31T08:31:06.880Z,3652
2016-07-31T08:32:06.906Z,3276
2016-07-31T08:33:06.928Z,3076
2016-07-31T08:34:06.961Z,2964
2016-07-31T08:35:06.985Z,2764
2016-07-31T08:36:07.011Z,2616
2016-07-31T08:37:07.040Z,2464
2016-07-31T08:38:07.766Z,2388
2016-07-31T08:39:07.095Z,2428
2016-07-31T08:40:07.821Z,2652
2016-07-31T08:41:08.254Z,2912
2016-07-31T08:42:07.183Z,2980
2016-07-31T08:43:07.204Z,3016
2016-07-31T08:44:07.234Z,3224
2016-07-31T08:45:07.260Z,3856
2016-07-31T08:46:07.286Z,4624
2016-07-31T08:47:07.313Z,6184
2016-07-31T08:48:07.340Z,7580
2016-07-31T08:49:07.367Z,6884
2016-07-31T08:50:07.393Z,5400
2016-07-31T08:51:07.421Z,4040
2016-07-31T08:52:07.448Z,3092
2016-07-31T08:53:07.476Z,2536
2016-07-31T08:54:07.511Z,2400
2016-07-31T08:55:08.243Z,2424
2016-07-31T08:56:07.567Z,2468
2016-07-31T08:57:07.586Z,2300
2016-07-31T08:58:07.614Z,1916
2016-07-31T08:59:07.641Z,1612
2016-07-31T09:00:07.670Z,1400
2016-07-31T09:01:07.697Z,1288
2016-07-31T09:02:08.428Z,1232
2016-07-31T09:03:07.752Z,1224
2016-07-31T09:04:07.785Z,1260
2016-07-31T09:05:07.805Z,1268
2016-07-31T09:06:07.837Z,1252
2016-07-31T09:07:08.557Z,1216
2016-07-31T09:08:07.888Z,1132
2016-07-31T09:09:07.929Z,1056
2016-07-31T09:10:07.946Z,1008
2016-07-31T09:11:07.969Z,992
2016-07-31T09:12:08.702Z,984
2016-07-31T09:13:08.026Z,1024
2016-07-31T09:14:08.055Z,1084
2016-07-31T09:15:08.086Z,1136
2016-07-31T09:16:08.120Z,1180
2016-07-31T09:17:08.141Z,1216
2016-07-31T09:18:08.168Z,1196
2016-07-31T09:19:08.192Z,1204
2016-07-31T09:20:08.231Z,1208
2016-07-31T09:21:08.248Z,1152
2016-07-31T09:22:08.973Z,1080
2016-07-31T09:23:08.307Z,1028
2016-07-31T09:24:08.343Z,1020
2016-07-31T09:25:08.361Z,1064
2016-07-31T09:26:08.399Z,1104
2016-07-31T09:27:08.415Z,1152
2016-07-31T09:28:08.444Z,1160
2016-07-31T09:29:08.469Z,1132
2016-07-31T09:30:08.500Z,1124
2016-07-31T09:31:08.525Z,1132
2016-07-31T09:32:08.552Z,1168
2016-07-31T09:33:08.592Z,1224
2016-07-31T09:34:08.620Z,1260
2016-07-31T09:35:08.641Z,1296
2016-07-31T09:36:08.666Z,1316
2016-07-31T09:37:08.686Z,1332
2016-07-31T09:38:09.415Z,1376
2016-07-31T09:39:08.744Z,1408
2016-07-31T09:40:08.770Z,1456
2016-07-31T09:41:08.796Z,1484
2016-07-31T09:42:08.837Z,1492
2016-07-31T09:43:08.858Z,1516
2016-07-31T09:44:08.884Z,1536
2016-07-31T09:45:08.916Z,1584
2016-07-31T09:46:08.942Z,1684
2016-07-31T09:47:08.973Z,1832
2016-07-31T09:48:08.993Z,1908
2016-07-31T09:49:09.020Z,1936
2016-07-31T09:50:09.045Z,1980
2016-07-31T09:51:09.072Z,2012
2016-07-31T09:52:09.095Z,2040
2016-07-31T09:53:09.125Z,2056
2016-07-31T09:54:09.151Z,2048
2016-07-31T09:55:09.177Z,2024
2016-07-31T09:56:09.209Z,2028
2016-07-31T09:57:09.235Z,2104
2016-07-31T09:58:09.259Z,2280
2016-07-31T09:59:09.289Z,2396
2016-07-31T10:00:09.334Z,2412
2016-07-31T10:01:09.352Z,2412
2016-07-31T10:02:09.375Z,2412
2016-07-31T10:03:09.396Z,2408
2016-07-31T10:04:09.424Z,2400
2016-07-31T10:05:09.453Z,2308
2016-07-31T10:06:09.482Z,2232
2016-07-31T10:07:10.204Z,2012
2016-07-31T10:08:09.531Z,1864
2016-07-31T10:09:09.561Z,1948
2016-07-31T10:10:09.590Z,2288
2016-07-31T10:11:09.612Z,2768
2016-07-31T10:12:09.643Z,3280
2016-07-31T10:13:09.670Z,3636
2016-07-31T10:14:09.694Z,3652
2016-07-31T10:15:09.728Z,3696
2016-07-31T10:16:09.750Z,3616
2016-07-31T10:17:09.776Z,3428
2016-07-31T10:18:09.807Z,3112
2016-07-31T10:19:09.829Z,2772
2016-07-31T10:20:09.860Z,2536
2016-07-31T10:21:09.888Z,2424
2016-07-31T10:22:09.923Z,2432
2016-07-31T10:23:09.944Z,2572
2016-07-31T10:24:09.986Z,2628
2016-07-31T10:25:09.995Z,2552
2016-07-31T10:26:10.026Z,2376
2016-07-31T10:27:10.055Z,2152
2016-07-31T10:28:10.088Z,2000
2016-07-31T10:29:10.119Z,1976
2016-07-31T10:30:10.139Z,2004
2016-07-31T10:31:10.161Z,2108
2016-07-31T10:32:10.188Z,2288
2016-07-31T10:33:10.218Z,2328
2016-07-31T10:34:10.247Z,2320
2016-07-31T10:35:10.280Z,2324
2016-07-31T10:36:10.307Z,2356
2016-07-31T10:37:10.330Z,2304
2016-07-31T10:38:10.354Z,2320
2016-07-31T10:39:10.387Z,2480
2016-07-31T10:40:10.414Z,3348
2016-07-31T10:41:10.486Z,4204
2016-07-31T10:42:10.470Z,4468
2016-07-31T10:43:10.495Z,4216
2016-07-31T10:44:10.523Z,4160
2016-07-31T10:45:10.551Z,4492
2016-07-31T10:46:10.580Z,4428
2016-07-31T10:47:10.607Z,4272
2016-07-31T10:48:10.635Z,4112
2016-07-31T10:49:10.660Z,3732
2016-07-31T10:50:10.696Z,3344
2016-07-31T10:51:10.715Z,3288
2016-07-31T10:52:10.746Z,3492
2016-07-31T10:53:10.770Z,3628
2016-07-31T10:54:10.800Z,3576
2016-07-31T10:55:10.829Z,3716
2016-07-31T10:56:10.857Z,4092
2016-07-31T10:57:10.888Z,4716
2016-07-31T10:58:10.912Z,4448
2016-07-31T10:59:10.942Z,4136
2016-07-31T11:00:10.977Z,3796
2016-07-31T11:01:11.001Z,3272
2016-07-31T11:02:11.027Z,3028
2016-07-31T11:03:11.052Z,3116
2016-07-31T11:04:11.078Z,3188
2016-07-31T11:05:11.108Z,3168
2016-07-31T11:06:11.137Z,3248
2016-07-31T11:07:11.162Z,3240
2016-07-31T11:08:11.199Z,3152
2016-07-31T11:09:11.223Z,3028
2016-07-31T11:10:11.261Z,2800
2016-07-31T11:11:11.278Z,2380
2016-07-31T11:12:11.314Z,2276
2016-07-31T11:13:11.337Z,2356
2016-07-31T11:14:11.373Z,2552
2016-07-31T11:15:11.390Z,2720
2016-07-31T11:16:11.428Z,2640
2016-07-31T11:17:11.448Z,2576
2016-07-31T11:18:11.473Z,2560
2016-07-31T11:19:11.498Z,2588
2016-07-31T11:20:11.532Z,2636
2016-07-31T11:21:11.564Z,2684
2016-07-31T11:22:11.588Z,2960
2016-07-31T11:23:11.613Z,3608
2016-07-31T11:24:11.641Z,3856
2016-07-31T11:25:11.667Z,3976
2016-07-31T11:26:11.704Z,3792
2016-07-31T11:27:11.727Z,3572
2016-07-31T11:28:11.756Z,3404
2016-07-31T11:29:11.779Z,3268
2016-07-31T11:30:12.512Z,2884
2016-07-31T11:31:11.834Z,2544
2016-07-31T11:32:12.579Z,2308
2016-07-31T11:33:11.904Z,2284
2016-07-31T11:34:11.919Z,2268
2016-07-31T11:35:11.959Z,2316
2016-07-31T11:36:11.978Z,2512
2016-07-31T11:37:12.008Z,2560
2016-07-31T11:38:12.033Z,2820
2016-07-31T11:39:12.062Z,2836
2016-07-31T11:40:12.092Z,2860
2016-07-31T11:41:12.120Z,2956
2016-07-31T11:42:12.150Z,2996
2016-07-31T11:43:12.174Z,3020
2016-07-31T11:44:12.203Z,3024
2016-07-31T11:45:12.235Z,3048
2016-07-31T11:46:12.255Z,3684
2016-07-31T11:47:12.294Z,3000
2016-07-31T11:48:12.319Z,3604
2016-07-31T11:49:12.341Z,3612
2016-07-31T11:50:12.372Z,3536
2016-07-31T11:51:13.098Z,3560
2016-07-31T11:52:12.429Z,3592
2016-07-31T11:53:12.457Z,3076
2016-07-31T11:54:12.486Z,3364
2016-07-31T11:55:12.511Z,2944
2016-07-31T11:56:13.246Z,3096
2016-07-31T11:57:12.573Z,3360
2016-07-31T11:58:12.595Z,3620
2016-07-31T11:59:12.626Z,3944
2016-07-31T12:00:12.653Z,4200
2016-07-31T12:01:12.675Z,4228
2016-07-31T12:02:12.719Z,3936
2016-07-31T12:03:12.736Z,3592
2016-07-31T12:04:12.766Z,2592
2016-07-31T12:05:12.792Z,3028
2016-07-31T12:06:12.827Z,2780
2016-07-31T12:07:12.847Z,2644
2016-07-31T12:08:12.884Z,2528
2016-07-31T12:09:12.908Z,2448
2016-07-31T12:10:12.932Z,1736
2016-07-31T12:11:12.968Z,2364
2016-07-31T12:12:12.991Z,2436
2016-07-31T12:13:13.019Z,2628
2016-07-31T12:14:13.057Z,2800
2016-07-31T12:15:13.084Z,2896
2016-07-31T12:16:13.109Z,2868
2016-07-31T12:17:13.127Z,2860
2016-07-31T12:18:13.164Z,2916
2016-07-31T12:19:13.184Z,3028
2016-07-31T12:20:13.219Z,3200
2016-07-31T12:21:13.244Z,3312
2016-07-31T12:22:13.273Z,3416
2016-07-31T12:23:13.297Z,3424
2016-07-31T12:24:13.334Z,3368
2016-07-31T12:25:13.368Z,3352
2016-07-31T12:26:13.392Z,2904
2016-07-31T12:27:13.413Z,2052
2016-07-31T12:28:13.450Z,1760
2016-07-31T12:29:13.467Z,1520
2016-07-31T12:30:13.501Z,1292
2016-07-31T12:31:13.524Z,1072
2016-07-31T12:32:13.551Z,848
2016-07-31T12:33:13.581Z,652
2016-07-31T12:34:13.608Z,520
2016-07-31T12:35:13.635Z,436
2016-07-31T12:36:13.668Z,404
2016-07-31T12:37:13.693Z,416
2016-07-31T12:38:14.418Z,444
2016-07-31T12:39:13.751Z,480
2016-07-31T12:40:13.780Z,540
2016-07-31T12:41:13.908Z,592
2016-07-31T12:42:13.836Z,628
2016-07-31T12:43:13.862Z,664
2016-07-31T12:44:13.890Z,712
2016-07-31T12:45:13.918Z,772
2016-07-31T12:46:13.950Z,840
2016-07-31T12:47:13.973Z,900
2016-07-31T12:48:14.003Z,964
2016-07-31T12:49:14.033Z,1060
2016-07-31T12:50:14.059Z,1144
2016-07-31T12:51:14.099Z,1212
2016-07-31T12:52:14.819Z,1272
2016-07-31T12:53:14.144Z,1324
2016-07-31T12:54:14.180Z,1412
2016-07-31T12:55:14.205Z,1464
2016-07-31T12:56:14.243Z,1484
2016-07-31T12:57:14.276Z,1496
2016-07-31T12:58:14.286Z,1524
2016-07-31T12:59:14.315Z,1560
2016-07-31T13:00:14.342Z,1608
2016-07-31T13:01:14.370Z,1696
2016-07-31T13:02:14.396Z,1824
2016-07-31T13:03:14.426Z,2004
2016-07-31T13:04:15.154Z,2260
2016-07-31T13:05:14.477Z,2560
2016-07-31T13:06:14.518Z,2844
2016-07-31T13:07:14.533Z,3092
2016-07-31T13:08:14.564Z,3316
2016-07-31T13:09:14.592Z,3520
2016-07-31T13:10:14.619Z,3684
2016-07-31T13:11:14.643Z,3820
2016-07-31T13:12:14.678Z,3940
2016-07-31T13:13:14.700Z,4040
2016-07-31T13:14:14.733Z,4116
2016-07-31T13:15:14.759Z,4204
2016-07-31T13:16:14.788Z,4256
2016-07-31T13:17:14.815Z,4300
2016-07-31T13:18:14.843Z,4360
2016-07-31T13:19:14.868Z,4396
2016-07-31T13:20:14.902Z,4424
2016-07-31T13:21:14.926Z,4496
2016-07-31T13:22:14.952Z,4620
2016-07-31T13:23:14.984Z,4556
2016-07-31T13:24:15.010Z,4608
2016-07-31T13:25:15.035Z,4404
2016-07-31T13:26:15.068Z,4564
2016-07-31T13:27:15.096Z,4220
2016-07-31T13:28:15.122Z,4428
2016-07-31T13:29:15.152Z,3792
2016-07-31T13:30:15.179Z,3436
2016-07-31T13:31:15.202Z,3176
2016-07-31T13:32:15.251Z,3004
2016-07-31T13:33:15.263Z,2840
2016-07-31T13:34:15.288Z,2804
2016-07-31T13:35:15.317Z,2756
2016-07-31T13:36:16.053Z,2740
2016-07-31T13:37:15.376Z,2760
2016-07-31T13:38:15.403Z,2784
2016-07-31T13:39:15.430Z,2804
2016-07-31T13:40:15.462Z,2816
2016-07-31T13:41:15.487Z,2876
2016-07-31T13:42:15.522Z,3180
2016-07-31T13:43:15.541Z,3172
2016-07-31T13:44:15.566Z,3668
2016-07-31T13:45:15.599Z,3576
2016-07-31T13:46:15.633Z,3404
2016-07-31T13:47:15.652Z,3280
2016-07-31T13:48:15.684Z,3024
2016-07-31T13:49:15.712Z,2892
2016-07-31T13:50:15.737Z,2712
2016-07-31T13:51:15.766Z,2560
2016-07-31T13:52:15.792Z,2460
2016-07-31T13:53:15.817Z,2384
2016-07-31T13:54:15.850Z,2316
2016-07-31T13:55:16.584Z,2276
2016-07-31T13:56:15.903Z,2248